• Join FlightAware (Why Join?)
  • Login
  • US Flag 
11:24AM EDT


 

Airport Tracker/Info


-or-


 

Live Flight TrackerFlight Track Log ✈ JBU51 ✈ 17-Jun-2013 ✈ KBTV - KJFK

Flight Track Log - Related Links

Times and Time Zones

All times are in EDT time to prevent confusion due to time zone crossing. See the JBU51 flight status page for this flight to view local times or setup timezone preferences in your user account.

Time Position Orientation Groundspeed Altitude Reporting Facility
EDT Latitude Longitude Course Direction KTS MPH feet Rate Location/Type
11:42AM 44.2318 -73.2296 190° South  Level FlightAware Approximate
11:43AM 44.1567 -73.2663 195° South  Level FlightAware Approximate
11:43AM 44.4850 -73.3364 196° South 245 282 9,700  Level Boston Center
11:44AM 44.0787 -73.2955 195° South  Level FlightAware Approximate
11:44AM 44.4078 -73.3583 191° South 273 314 12,800  Level Boston Center
11:45AM 44.0003 -73.3222 194° South  Level FlightAware Approximate
11:45AM 44.3200 -73.3831 191° South 306 352 14,600  Level Boston Center
11:46AM 43.9217 -73.3483 193° South  Level FlightAware Approximate
11:46AM 44.2239 -73.4106 192° South 340 391 17,300  Level Boston Center
11:47AM 43.8441 -73.3792 196° South  Level FlightAware Approximate
11:47AM 44.1256 -73.4436 194° South 363 418 19,700  Level Boston Center
11:48AM 43.7666 -73.4102 196° South  Level FlightAware Approximate
11:48AM 44.0314 -73.4997 203° Southwest 368 423 21,900  Level Boston Center
11:49AM 43.9350 -73.5558 203° Southwest 375 432 24,100 1,860 Climbing Boston Center
11:50AM 43.8386 -73.6144 204° Southwest 380 437 25,700 1,560 Climbing Boston Center
11:51AM 43.7442 -73.6672 202° Southwest 390 449 27,300 1,140 Climbing Boston Center
11:52AM 43.6436 -73.7225 202° Southwest 400 460 28,000 300 Climbing Boston Center
11:53AM 43.5431 -73.7806 203° Southwest 400 460 28,000  Level Boston Center
11:54AM 43.4633 -73.8244 202° Southwest 395 455 28,000  Level Boston Center
11:55AM 43.3311 -73.8986 202° Southwest 395 455 28,000  Level Boston Center
11:56AM 43.2200 -73.9331 193° South 400 460 28,000  Level Boston Center
11:57AM 43.0972 -73.9244 177° South 421 484 28,000  Level Boston Center
11:58AM 42.9767 -73.9100 175° South 429 494 28,000  Level Boston Center
11:59AM 42.8578 -73.9044 178° South 434 499 28,000  Level Boston Center
12:00PM 42.7392 -73.8931 176° South 434 499 28,000  Level Boston Center
12:01PM 42.6142 -73.8872 178° South 440 506 28,000  Level Boston Center
12:02PM 42.4850 -73.8817 178° South 432 497 28,000  Level Boston Center
12:03PM 42.3622 -73.8731 177° South 432 497 28,000  Level Boston Center
12:04PM 42.2644 -73.8653 177° South 442 509 28,000  Level Boston Center
12:05PM 42.1206 -73.8564 177° South 442 509 28,000  Level Boston Center
12:06PM 42.0081 -73.8483 177° South 424 488 28,000 -120 Level Boston Center
12:07PM 41.9056 -73.8850 195° South 407 468 27,800 -900 Descending Boston Center
12:08PM 41.8644 -73.9983 244° Southwest 329 379 26,200 -1,560 Descending Boston Center
12:10PM 41.6892 -74.1794 218° Southwest 336 387 22,400 -1,560 Descending New York Center
12:11PM 41.5844 -74.1325 161° South 352 405 20,800 -1,260 Descending New York Center
12:12PM 41.4842 -74.0692 155° Southeast 376 433 20,000 -480 Descending New York Center
12:13PM 41.3819 -74.0033 154° Southeast 391 450 19,900  Descending New York Center
12:14PM 41.2850 -73.9683 165° South 386 444 20,000  Climbing New York Center
12:15PM 41.2081 -74.0364 214° Southwest 304 350 20,000 -540 Level New York Center
12:16PM 41.1803 -74.1342 249° West 255 293 19,000 -540 Descending New York Center
12:17PM 41.1011 -74.1386 182° South 295 339 19,000  Level New York Center
12:18PM 41.0000 -74.1333 178° South 324 373 19,000  Level New York TRACON
12:19PM 40.9167 -74.1167 171° South 342 394 19,000 -300 Level New York TRACON
12:20PM 40.8500 -74.0000 127° Southeast 364 419 18,400 -960 Descending New York TRACON
12:21PM 40.8000 -73.9000 123° Southeast 362 417 17,100 -1,200 Descending New York TRACON
12:22PM 40.7333 -73.8000 131° Southeast 342 394 16,000 -900 Descending New York TRACON
12:23PM 40.6667 -73.7333 143° Southeast 364 419 15,400 -1,500 Descending New York TRACON
12:24PM 40.5667 -73.7000 166° South 318 366 13,100 -2,220 Descending New York TRACON
12:25PM 40.4833 -73.6833 171° South 291 335 11,000 -2,160 Descending New York TRACON
12:26PM 40.4000 -73.7000 189° South 290 334 8,600 -2,100 Descending New York TRACON
12:27PM 40.3500 -73.7667 225° Southwest 265 305 6,700 -1,380 Descending New York TRACON
12:28PM 40.3333 -73.8500 255° West 237 273 5,900 -1,440 Descending New York TRACON
12:29PM 40.3500 -73.9167 288° West 212 244 3,900 -1,560 Descending New York TRACON
12:30PM 40.3833 -73.9667 311° West 223 257 3,000 -480 Descending New York TRACON
12:31PM 40.4500 -73.9833 349° North 230 265 3,000  Level New York TRACON
12:32PM 40.5000 -73.9667 14° North 232 267 3,000  Level New York TRACON
12:33PM 40.5667 -73.9333 21° North 202 232 3,000 -300 Level New York TRACON
12:34PM 40.6000 -73.9000 37° Northeast 207 238 2,400 -780 Descending New York TRACON
12:35PM 40.6500 -73.8667 27° Northeast 161 185 1,500 -900 Descending New York TRACON
12:36PM 40.6667 -73.8167 66° East 153 176 600 -900 Descending New York TRACON